createdAt,value
2019-03-17T00:00:22.075Z,98760.88
2019-03-17T00:02:49.107Z,98753.78
2019-03-17T00:05:16.066Z,98746.13
2019-03-17T00:07:43.285Z,98743.58
2019-03-17T00:10:10.165Z,98748.38
2019-03-17T00:12:37.056Z,98745.94
2019-03-17T00:15:05.457Z,98744.39
2019-03-17T00:17:32.765Z,98743.30
2019-03-17T00:19:59.681Z,98736.73
2019-03-17T00:22:26.580Z,98730.45
2019-03-17T00:24:53.530Z,98748.41
2019-03-17T00:27:20.493Z,98735.91
2019-03-17T00:29:47.461Z,98737.30
2019-03-17T00:32:14.708Z,98739.65
2019-03-17T00:34:44.440Z,98735.09
2019-03-17T00:37:10.188Z,98731.44
2019-03-17T00:39:38.401Z,98726.46
2019-03-17T00:42:05.650Z,98728.05
2019-03-17T00:44:34.037Z,98724.75
2019-03-17T00:47:01.006Z,98734.44
2019-03-17T00:49:28.334Z,98728.67
2019-03-17T00:51:55.225Z,98739.27
2019-03-17T00:54:22.178Z,98738.02
2019-03-17T00:56:49.056Z,98733.50
2019-03-17T00:59:17.968Z,98731.88
2019-03-17T01:01:45.984Z,98726.05
2019-03-17T01:04:12.945Z,98721.23
2019-03-17T01:06:39.892Z,98726.55
2019-03-17T01:09:06.865Z,98715.16
2019-03-17T01:11:34.113Z,98720.78
2019-03-17T01:14:01.007Z,98716.31
2019-03-17T01:16:27.900Z,98705.81
2019-03-17T01:18:55.181Z,98700.34
2019-03-17T01:21:22.535Z,98700.42
2019-03-17T01:23:49.469Z,98696.17
2019-03-17T01:26:16.357Z,98698.39
2019-03-17T01:28:43.694Z,98693.06
2019-03-17T01:31:11.018Z,98693.55
2019-03-17T01:33:38.007Z,98684.80
2019-03-17T01:36:05.211Z,98682.95
2019-03-17T01:38:32.462Z,98674.41
2019-03-17T01:40:59.342Z,98669.13
2019-03-17T01:43:26.557Z,98666.60
2019-03-17T01:45:53.529Z,98662.21
2019-03-17T01:48:20.503Z,98665.27
2019-03-17T01:50:47.802Z,98658.23
2019-03-17T01:53:14.667Z,98648.64
2019-03-17T01:55:41.647Z,98643.77
2019-03-17T01:58:09.365Z,98640.11
2019-03-17T02:00:36.618Z,98635.66
2019-03-17T02:03:03.527Z,98631.91
2019-03-17T02:05:30.467Z,98626.03
2019-03-17T02:07:57.362Z,98621.89
2019-03-17T02:10:24.309Z,98622.27
2019-03-17T02:12:51.537Z,98616.41
2019-03-17T02:15:18.437Z,98617.09
2019-03-17T02:17:45.402Z,98615.70
2019-03-17T02:20:12.696Z,98602.22
2019-03-17T02:22:39.958Z,98596.83
2019-03-17T02:25:06.904Z,98593.02
2019-03-17T02:27:33.837Z,98598.03
2019-03-17T02:30:01.105Z,98593.33
2019-03-17T02:32:28.354Z,98592.34
2019-03-17T02:34:55.616Z,98590.31
2019-03-17T02:37:22.532Z,98588.45
2019-03-17T02:39:49.683Z,98587.40
2019-03-17T02:42:16.556Z,98584.15
2019-03-17T02:44:43.450Z,98580.63
2019-03-17T02:47:10.408Z,98582.63
2019-03-17T02:49:37.352Z,98577.98
2019-03-17T02:52:04.527Z,98577.98
2019-03-17T02:54:31.414Z,98575.44
2019-03-17T02:56:58.380Z,98571.63
2019-03-17T02:59:25.421Z,98569.63
2019-03-17T03:01:52.619Z,98569.88
2019-03-17T03:04:19.624Z,98560.18
2019-03-17T03:06:46.905Z,98560.89
2019-03-17T03:09:13.809Z,98559.62
2019-03-17T03:11:40.782Z,98553.90
2019-03-17T03:14:07.710Z,98552.30
2019-03-17T03:16:34.887Z,98549.07
2019-03-17T03:19:01.821Z,98547.02
2019-03-17T03:21:28.716Z,98551.38
2019-03-17T03:23:55.672Z,98546.23
2019-03-17T03:26:23.012Z,98543.05
2019-03-17T03:28:50.037Z,98540.66
2019-03-17T03:31:17.311Z,98539.38
2019-03-17T03:33:44.263Z,98533.42
2019-03-17T03:36:11.999Z,98534.50
2019-03-17T03:38:39.489Z,98523.63
2019-03-17T03:41:06.458Z,98528.58
2019-03-17T03:43:33.497Z,98518.02
2019-03-17T03:46:00.390Z,98512.41
2019-03-17T03:48:27.333Z,98513.64
2019-03-17T03:50:54.295Z,98498.36
2019-03-17T03:53:21.230Z,98497.52
2019-03-17T03:55:48.095Z,98495.81
2019-03-17T03:58:15.427Z,98490.79
2019-03-17T04:00:42.582Z,98489.31
2019-03-17T04:03:09.835Z,98486.67
2019-03-17T04:05:36.812Z,98479.06
2019-03-17T04:08:04.130Z,98474.50
2019-03-17T04:10:31.086Z,98474.50
2019-03-17T04:12:58.339Z,98470.07
2019-03-17T04:15:26.722Z,98468.91
2019-03-17T04:17:53.795Z,98461.02
2019-03-17T04:20:20.783Z,98458.48
2019-03-17T04:22:49.075Z,98450.38
2019-03-17T04:25:15.951Z,98446.80
2019-03-17T04:27:42.868Z,98444.83
2019-03-17T04:30:09.830Z,98436.92
2019-03-17T04:32:36.775Z,98436.45
2019-03-17T04:35:03.757Z,98430.82
2019-03-17T04:37:31.804Z,98419.09
2019-03-17T04:39:58.737Z,98427.24
2019-03-17T04:42:25.614Z,98424.66
2019-03-17T04:44:52.569Z,98424.61
2019-03-17T04:47:19.872Z,98421.89
2019-03-17T04:49:46.746Z,98418.80
2019-03-17T04:52:14.011Z,98414.83
2019-03-17T04:54:40.967Z,98414.27
2019-03-17T04:57:08.269Z,98412.34
2019-03-17T04:59:35.547Z,98404.41
2019-03-17T05:02:02.804Z,98402.77
2019-03-17T05:04:29.759Z,98402.63
2019-03-17T05:06:56.703Z,98403.98
2019-03-17T05:09:23.938Z,98403.05
2019-03-17T05:11:51.164Z,98399.34
2019-03-17T05:14:18.034Z,98393.48
2019-03-17T05:16:44.986Z,98390.66
2019-03-17T05:19:11.853Z,98388.59
2019-03-17T05:21:39.070Z,98384.09
2019-03-17T05:24:06.339Z,98382.12
2019-03-17T05:26:33.306Z,98384.38
2019-03-17T05:29:00.634Z,98372.61
2019-03-17T05:31:27.651Z,98366.32
2019-03-17T05:33:54.615Z,98374.33
2019-03-17T05:36:21.903Z,98373.83
2019-03-17T05:38:49.289Z,98368.70
2019-03-17T05:41:16.494Z,98377.95
2019-03-17T05:43:43.726Z,98366.50
2019-03-17T05:46:10.985Z,98364.21
2019-03-17T05:48:38.236Z,98367.34
2019-03-17T05:51:05.505Z,98369.17
2019-03-17T05:53:32.823Z,98367.80
2019-03-17T05:56:00.762Z,98371.73
2019-03-17T05:58:27.635Z,98372.00
2019-03-17T06:00:54.902Z,98371.80
2019-03-17T06:03:22.158Z,98370.02
2019-03-17T06:05:49.024Z,98373.72
2019-03-17T06:08:16.241Z,98365.58
2019-03-17T06:10:43.504Z,98365.00
2019-03-17T06:13:10.761Z,98366.33
2019-03-17T06:15:37.719Z,98362.58
2019-03-17T06:18:04.682Z,98363.96
2019-03-17T06:20:31.694Z,98360.73
2019-03-17T06:22:58.839Z,98362.52
2019-03-17T06:25:26.106Z,98361.55
2019-03-17T06:27:53.354Z,98363.61
2019-03-17T06:30:20.294Z,98356.48
2019-03-17T06:32:47.161Z,98355.31
2019-03-17T06:35:14.392Z,98357.89
2019-03-17T06:37:41.642Z,98346.98
2019-03-17T06:40:08.899Z,98357.68
2019-03-17T06:42:35.872Z,98353.84
2019-03-17T06:45:03.989Z,98347.36
2019-03-17T06:47:30.886Z,98356.44
2019-03-17T06:49:57.768Z,98354.72
2019-03-17T06:52:24.711Z,98353.61
2019-03-17T06:54:51.624Z,98351.62
2019-03-17T06:57:18.954Z,98350.02
2019-03-17T06:59:46.193Z,98350.98
2019-03-17T07:02:13.075Z,98343.12
2019-03-17T07:04:39.983Z,98345.63
2019-03-17T07:07:06.996Z,98345.63
2019-03-17T07:09:34.314Z,98340.97
2019-03-17T07:12:01.242Z,98336.60
2019-03-17T07:14:28.520Z,98336.28
2019-03-17T07:16:55.592Z,98336.61
2019-03-17T07:19:22.806Z,98338.72
2019-03-17T07:21:49.767Z,98337.89
2019-03-17T07:24:17.118Z,98321.88
2019-03-17T07:26:44.528Z,98319.16
2019-03-17T07:29:11.463Z,98323.33
2019-03-17T07:31:38.372Z,98323.68
2019-03-17T07:34:05.802Z,98312.58
2019-03-17T07:36:32.724Z,98317.80
2019-03-17T07:39:11.265Z,98322.69
2019-03-17T07:41:29.629Z,98318.42
2019-03-17T07:43:56.849Z,98320.70
2019-03-17T07:46:23.733Z,98328.64
2019-03-17T07:48:50.780Z,98328.36
2019-03-17T07:51:17.661Z,98327.53
2019-03-17T07:53:44.565Z,98328.35
2019-03-17T07:56:11.547Z,98327.44
2019-03-17T07:58:38.963Z,98329.08
2019-03-17T08:01:06.029Z,98327.36
2019-03-17T08:03:32.978Z,98329.69
2019-03-17T08:06:00.292Z,98325.86
2019-03-17T08:08:27.383Z,98321.17
2019-03-17T08:10:54.304Z,98319.46
2019-03-17T08:13:21.522Z,98323.80
2019-03-17T08:15:48.389Z,98317.97
2019-03-17T08:18:15.843Z,98319.00
2019-03-17T08:20:42.808Z,98324.86
2019-03-17T08:23:09.774Z,98325.61
2019-03-17T08:25:36.680Z,98319.86
2019-03-17T08:28:03.569Z,98311.16
2019-03-17T08:30:30.502Z,98325.90
2019-03-17T08:32:57.742Z,98335.30
2019-03-17T08:35:25.072Z,98328.62
2019-03-17T08:37:52.008Z,98322.20
2019-03-17T08:40:18.968Z,98321.75
2019-03-17T08:42:45.864Z,98318.42
2019-03-17T08:45:12.833Z,98310.58
2019-03-17T08:47:40.110Z,98321.00
2019-03-17T08:50:06.981Z,98303.27
2019-03-17T08:52:34.471Z,98318.65
2019-03-17T08:55:01.602Z,98312.41
2019-03-17T08:57:29.461Z,98327.61
2019-03-17T08:59:56.781Z,98316.46
2019-03-17T09:02:24.035Z,98329.09
2019-03-17T09:04:50.902Z,98332.02
2019-03-17T09:07:18.140Z,98343.93
2019-03-17T09:09:45.381Z,98329.09
2019-03-17T09:12:12.536Z,98350.31
2019-03-17T09:14:39.789Z,98348.49
2019-03-17T09:17:14.244Z,98349.77
2019-03-17T09:19:35.697Z,98347.77
2019-03-17T09:22:02.645Z,98327.09
2019-03-17T09:24:29.936Z,98347.20
2019-03-17T09:26:57.170Z,98352.72
2019-03-17T09:29:24.317Z,98338.89
2019-03-17T09:31:51.205Z,98354.53
2019-03-17T09:34:18.170Z,98370.45
2019-03-17T09:36:45.097Z,98361.48
2019-03-17T09:39:11.984Z,98372.83
2019-03-17T09:41:39.248Z,98362.40
2019-03-17T09:44:06.219Z,98357.21
2019-03-17T09:46:33.222Z,98368.66
2019-03-17T09:49:00.120Z,98362.60
2019-03-17T09:51:27.453Z,98355.75
2019-03-17T09:53:54.833Z,98369.01
2019-03-17T09:56:21.805Z,98356.56
2019-03-17T09:58:48.666Z,98349.13
2019-03-17T10:01:15.873Z,98354.91
2019-03-17T10:03:43.204Z,98349.78
2019-03-17T10:06:10.403Z,98355.27
2019-03-17T10:08:37.595Z,98313.61
2019-03-17T10:11:04.627Z,98341.17
2019-03-17T10:13:31.630Z,98332.59
2019-03-17T10:15:58.853Z,98336.88
2019-03-17T10:18:25.738Z,98327.81
2019-03-17T10:20:52.934Z,98340.81
2019-03-17T10:23:20.100Z,98327.73
2019-03-17T10:25:47.045Z,98347.59
2019-03-17T10:28:13.929Z,98330.93
2019-03-17T10:30:41.274Z,98342.28
2019-03-17T10:33:08.217Z,98344.66
2019-03-17T10:35:38.255Z,98349.25
2019-03-17T10:38:05.217Z,98343.45
2019-03-17T10:40:32.106Z,98343.01
2019-03-17T10:42:59.363Z,98338.61
2019-03-17T10:45:26.300Z,98344.30
2019-03-17T10:47:54.686Z,98350.14
2019-03-17T10:50:22.890Z,98356.02
2019-03-17T10:52:50.104Z,98350.53
2019-03-17T10:55:17.390Z,98338.05
2019-03-17T10:57:44.726Z,98339.91
2019-03-17T11:00:11.665Z,98340.55
2019-03-17T11:02:38.898Z,98339.53
2019-03-17T11:05:05.784Z,98339.98
2019-03-17T11:07:32.756Z,98328.27
2019-03-17T11:09:59.959Z,98326.53
2019-03-17T11:12:27.310Z,98330.73
2019-03-17T11:14:54.541Z,98329.84
2019-03-17T11:17:21.708Z,98341.47
2019-03-17T11:19:48.597Z,98346.11
2019-03-17T11:22:15.576Z,98342.02
2019-03-17T11:24:42.846Z,98335.69
2019-03-17T11:27:11.157Z,98330.92
2019-03-17T11:29:38.024Z,98324.51
2019-03-17T11:32:06.596Z,98324.89
2019-03-17T11:34:33.484Z,98332.94
2019-03-17T11:37:00.768Z,98324.89
2019-03-17T11:39:37.286Z,98324.34
2019-03-17T11:41:56.581Z,98332.22
2019-03-17T11:44:23.468Z,98333.31
2019-03-17T11:46:50.432Z,98335.98
2019-03-17T11:49:17.765Z,98332.75
2019-03-17T11:51:44.691Z,98338.88
2019-03-17T11:54:11.560Z,98343.92
2019-03-17T11:56:39.394Z,98339.17
2019-03-17T11:59:06.598Z,98342.48
2019-03-17T12:01:33.506Z,98338.79
2019-03-17T12:04:00.461Z,98340.36
2019-03-17T12:06:27.679Z,98338.45
2019-03-17T12:08:54.580Z,98344.48
2019-03-17T12:11:21.536Z,98348.33
2019-03-17T12:13:48.844Z,98350.55
2019-03-17T12:16:15.905Z,98344.30
2019-03-17T12:18:43.118Z,98345.39
2019-03-17T12:21:10.049Z,98342.63
2019-03-17T12:23:36.981Z,98346.13
2019-03-17T12:26:04.354Z,98340.84
2019-03-17T12:28:31.366Z,98349.98
2019-03-17T12:30:58.605Z,98356.67
2019-03-17T12:33:25.617Z,98334.03
2019-03-17T12:35:55.574Z,98326.78
2019-03-17T12:38:22.732Z,98315.34
2019-03-17T12:40:49.611Z,98315.91
2019-03-17T12:43:16.584Z,98306.02
2019-03-17T12:45:43.836Z,98299.41
2019-03-17T12:48:10.729Z,98303.06
2019-03-17T12:50:37.610Z,98310.63
2019-03-17T12:53:07.653Z,98301.19
2019-03-17T12:55:33.759Z,98286.04
2019-03-17T12:58:00.888Z,98301.33
2019-03-17T13:00:28.001Z,98305.03
2019-03-17T13:02:56.386Z,98309.32
2019-03-17T13:05:23.597Z,98312.62
2019-03-17T13:07:50.752Z,98308.57
2019-03-17T13:10:17.730Z,98313.36
2019-03-17T13:12:45.064Z,98301.80
2019-03-17T13:15:12.315Z,98287.88
2019-03-17T13:17:39.185Z,98302.00
2019-03-17T13:20:06.069Z,98297.42
2019-03-17T13:22:33.089Z,98301.92
2019-03-17T13:25:00.405Z,98292.20
2019-03-17T13:27:27.391Z,98300.28
2019-03-17T13:29:54.331Z,98302.57
2019-03-17T13:32:21.837Z,98307.55
2019-03-17T13:34:49.166Z,98305.33
2019-03-17T13:37:16.084Z,98333.95
2019-03-17T13:39:43.368Z,98309.13
2019-03-17T13:42:10.623Z,98311.41
2019-03-17T13:44:37.597Z,98298.96
2019-03-17T13:47:04.540Z,98304.59
2019-03-17T13:49:31.901Z,98301.67
2019-03-17T13:51:58.851Z,98297.62
2019-03-17T13:54:26.106Z,98305.67
2019-03-17T13:56:53.042Z,98290.37
2019-03-17T13:59:19.914Z,98294.77
2019-03-17T14:01:46.791Z,98297.62
2019-03-17T14:04:13.984Z,98304.84
2019-03-17T14:06:41.136Z,98304.77
2019-03-17T14:09:08.024Z,98283.30
2019-03-17T14:11:35.335Z,98297.97
2019-03-17T14:14:02.475Z,98281.66
2019-03-17T14:16:29.373Z,98276.58
2019-03-17T14:18:56.314Z,98286.20
2019-03-17T14:21:24.573Z,98286.65
2019-03-17T14:23:52.001Z,98293.52
2019-03-17T14:26:19.148Z,98299.23
2019-03-17T14:28:46.467Z,98297.52
2019-03-17T14:31:13.384Z,98294.86
2019-03-17T14:33:40.629Z,98304.44
2019-03-17T14:36:07.596Z,98296.73
2019-03-17T14:38:34.555Z,98309.37
2019-03-17T14:41:01.851Z,98301.09
2019-03-17T14:43:29.105Z,98304.39
2019-03-17T14:45:56.123Z,98297.97
2019-03-17T14:48:23.032Z,98297.06
2019-03-17T14:50:50.241Z,98296.14
2019-03-17T14:53:17.494Z,98291.20
2019-03-17T14:55:44.395Z,98306.60
2019-03-17T14:58:11.348Z,98298.52
2019-03-17T15:00:38.336Z,98302.37
2019-03-17T15:03:05.232Z,98312.64
2019-03-17T15:05:32.102Z,98324.19
2019-03-17T15:07:59.511Z,98329.71
2019-03-17T15:10:26.779Z,98335.94
2019-03-17T15:12:53.737Z,98377.95
2019-03-17T15:15:21.030Z,98385.69
2019-03-17T15:17:48.191Z,98410.80
2019-03-17T15:20:15.659Z,98421.54
2019-03-17T15:22:42.829Z,98415.40
2019-03-17T15:25:10.145Z,98455.43
2019-03-17T15:27:37.597Z,98432.86
2019-03-17T15:30:04.761Z,98450.26
2019-03-17T15:32:31.736Z,98468.66
2019-03-17T15:34:58.948Z,98509.88
2019-03-17T15:37:25.878Z,98487.30
2019-03-17T15:39:52.815Z,98491.86
2019-03-17T15:42:19.789Z,98507.20
2019-03-17T15:44:47.132Z,98530.26
2019-03-17T15:47:14.539Z,98548.91
2019-03-17T15:49:41.486Z,98565.48
2019-03-17T15:52:08.712Z,98569.41
2019-03-17T15:54:35.964Z,98571.79
2019-03-17T15:57:03.349Z,98606.34
2019-03-17T15:59:30.599Z,98610.95
2019-03-17T16:01:57.490Z,98626.14
2019-03-17T16:04:24.439Z,98633.13
2019-03-17T16:06:51.345Z,98637.53
2019-03-17T16:09:18.292Z,98649.47
2019-03-17T16:11:45.456Z,98664.61
2019-03-17T16:14:12.321Z,98672.27
2019-03-17T16:16:39.224Z,98682.20
2019-03-17T16:19:06.439Z,98694.84
2019-03-17T16:21:33.795Z,98702.77
2019-03-17T16:24:01.057Z,98717.72
2019-03-17T16:26:28.403Z,98724.73
2019-03-17T16:28:55.273Z,98723.22
2019-03-17T16:31:22.211Z,98739.91
2019-03-17T16:33:49.143Z,98737.91
2019-03-17T16:36:16.157Z,98735.09
2019-03-17T16:38:43.111Z,98739.89
2019-03-17T16:41:12.185Z,98748.88
2019-03-17T16:43:39.013Z,98750.72
2019-03-17T16:46:06.268Z,98747.02
2019-03-17T16:48:33.371Z,98750.84
2019-03-17T16:51:00.277Z,98762.77
2019-03-17T16:53:28.274Z,98772.53
2019-03-17T16:55:55.159Z,98772.53
2019-03-17T16:58:22.685Z,98770.89
2019-03-17T17:00:49.568Z,98767.99
2019-03-17T17:03:16.575Z,98773.28
2019-03-17T17:05:43.929Z,98781.84
2019-03-17T17:08:11.218Z,98778.82
2019-03-17T17:10:39.098Z,98781.90
2019-03-17T17:13:07.330Z,98788.30
2019-03-17T17:15:34.417Z,98792.26
2019-03-17T17:18:01.457Z,98801.96
2019-03-17T17:20:30.843Z,98802.34
2019-03-17T17:22:57.853Z,98814.78
2019-03-17T17:25:25.173Z,98809.98
2019-03-17T17:27:52.518Z,98806.65
2019-03-17T17:30:19.738Z,98801.80
2019-03-17T17:32:46.678Z,98782.56
2019-03-17T17:35:13.621Z,98772.17
2019-03-17T17:37:40.866Z,98770.61
2019-03-17T17:40:08.190Z,98763.09
2019-03-17T17:42:35.494Z,98764.17
2019-03-17T17:45:02.452Z,98764.38
2019-03-17T17:47:29.419Z,98765.39
2019-03-17T17:49:57.363Z,98768.91
2019-03-17T17:52:24.703Z,98760.45
2019-03-17T17:54:51.563Z,98762.33
2019-03-17T17:57:18.820Z,98765.42
2019-03-17T17:59:46.146Z,98761.78
2019-03-17T18:02:13.412Z,98762.62
2019-03-17T18:04:40.666Z,98764.33
2019-03-17T18:07:07.954Z,98753.35
2019-03-17T18:09:34.965Z,98752.98
2019-03-17T18:12:02.216Z,98758.45
2019-03-17T18:14:30.267Z,98771.66
2019-03-17T18:16:57.211Z,98784.94
2019-03-17T18:21:59.094Z,98802.77
2019-03-17T18:24:26.073Z,98809.31
2019-03-17T18:26:53.321Z,98803.05
2019-03-17T18:29:20.217Z,98800.56
2019-03-17T18:31:47.420Z,98819.25
2019-03-17T18:34:14.398Z,98826.52
2019-03-17T18:36:41.770Z,98815.28
2019-03-17T18:39:08.766Z,98821.23
2019-03-17T18:41:35.707Z,98805.96
2019-03-17T18:44:02.962Z,98802.14
2019-03-17T18:46:29.873Z,98810.19
2019-03-17T18:48:56.842Z,98816.50
2019-03-17T18:51:25.097Z,98815.39
2019-03-17T18:53:52.584Z,98812.49
2019-03-17T18:58:48.550Z,98828.31
2019-03-17T19:01:15.523Z,98833.41
2019-03-17T19:03:42.933Z,98828.37
2019-03-17T19:06:09.878Z,98831.32
2019-03-17T19:08:38.246Z,98830.59
2019-03-17T19:11:05.136Z,98823.44
2019-03-17T19:13:32.015Z,98820.00
2019-03-17T19:15:59.294Z,98816.96
2019-03-17T19:18:26.183Z,98820.35
2019-03-17T19:20:53.381Z,98830.20
2019-03-17T19:23:21.800Z,98827.91
2019-03-17T19:25:48.815Z,98834.87
2019-03-17T19:28:16.017Z,98835.36
2019-03-17T19:30:43.170Z,98831.89
2019-03-17T19:33:11.390Z,98827.96
2019-03-17T19:35:38.545Z,98826.44
2019-03-17T19:38:06.036Z,98828.61
2019-03-17T19:40:32.975Z,98828.94
2019-03-17T19:43:00.043Z,98819.70
2019-03-17T19:45:26.977Z,98819.34
2019-03-17T19:47:54.290Z,98827.94
2019-03-17T19:50:21.182Z,98837.63
2019-03-17T19:52:48.138Z,98843.48
2019-03-17T19:55:15.471Z,98850.64
2019-03-17T19:57:42.698Z,98848.50
2019-03-17T20:00:09.951Z,98861.98
2019-03-17T20:02:37.191Z,98862.45
2019-03-17T20:05:04.169Z,98865.41
2019-03-17T20:07:31.153Z,98860.69
2019-03-17T20:09:58.439Z,98858.25
2019-03-17T20:12:25.705Z,98882.94
2019-03-17T20:14:52.687Z,98888.92
2019-03-17T20:17:19.740Z,98888.03
2019-03-17T20:19:46.811Z,98895.23
2019-03-17T20:22:13.731Z,98902.73
2019-03-17T20:24:40.700Z,98899.02
2019-03-17T20:27:07.901Z,98900.70
2019-03-17T20:29:34.795Z,98895.99
2019-03-17T20:32:02.129Z,98927.14
2019-03-17T20:34:29.335Z,98933.99
2019-03-17T20:36:56.353Z,98915.68
2019-03-17T20:39:23.261Z,98911.48
2019-03-17T20:41:50.182Z,98925.92
2019-03-17T20:44:17.160Z,98940.36
2019-03-17T20:46:44.136Z,98960.14
2019-03-17T20:49:11.425Z,98974.15
2019-03-17T20:51:38.384Z,98982.58
2019-03-17T20:54:05.349Z,98965.55
2019-03-17T20:56:32.582Z,98980.41
2019-03-17T20:58:59.551Z,98976.59
2019-03-17T21:01:26.521Z,98984.23
2019-03-17T21:03:53.456Z,98983.86
2019-03-17T21:06:20.347Z,98989.44
2019-03-17T21:08:47.288Z,99008.16
2019-03-17T21:11:14.174Z,99013.62
2019-03-17T21:13:46.588Z,99026.45
2019-03-17T21:16:10.369Z,99026.94
2019-03-17T21:18:37.622Z,99031.80
2019-03-17T21:21:04.774Z,99027.98
2019-03-17T21:23:31.690Z,99035.58
2019-03-17T21:25:59.195Z,99034.68
2019-03-17T21:28:27.687Z,99051.59
2019-03-17T21:30:55.118Z,99057.91
2019-03-17T21:33:22.048Z,99039.57
2019-03-17T21:35:48.992Z,99033.72
2019-03-17T21:38:16.206Z,99036.84
2019-03-17T21:41:01.314Z,99040.72
2019-03-17T21:43:11.702Z,99040.86
2019-03-17T21:45:38.846Z,99051.09
2019-03-17T21:48:05.804Z,99043.52
2019-03-17T21:50:33.061Z,99040.55
2019-03-17T21:53:00.290Z,99047.90
2019-03-17T21:55:27.243Z,99058.03
2019-03-17T21:57:54.517Z,99049.17
2019-03-17T22:00:21.745Z,99044.23
2019-03-17T22:02:49.117Z,99041.31
2019-03-17T22:05:16.464Z,99041.31
2019-03-17T22:07:49.704Z,99047.30
2019-03-17T22:10:12.325Z,99059.23
2019-03-17T22:12:39.667Z,99063.56
2019-03-17T22:15:06.680Z,99063.19
2019-03-17T22:17:33.633Z,99060.64
2019-03-17T22:20:00.658Z,99044.14
2019-03-17T22:22:28.042Z,99049.61
2019-03-17T22:24:55.202Z,99048.75
2019-03-17T22:27:22.113Z,99049.70
2019-03-17T22:29:49.457Z,99061.64
2019-03-17T22:32:16.418Z,99068.94
2019-03-17T22:34:43.319Z,99072.42
2019-03-17T22:37:10.293Z,99072.75
2019-03-17T22:39:37.225Z,99073.69
2019-03-17T22:42:04.120Z,99065.26
2019-03-17T22:44:31.072Z,99067.86
2019-03-17T22:46:58.319Z,99080.59
2019-03-17T22:49:25.590Z,99079.31
2019-03-17T22:51:52.832Z,99088.69
2019-03-17T22:54:20.293Z,99095.05
2019-03-17T22:56:47.546Z,99095.44
2019-03-17T22:59:14.527Z,99093.03
2019-03-17T23:01:41.542Z,99096.50
2019-03-17T23:04:08.677Z,99082.64
2019-03-17T23:06:35.578Z,99086.09
2019-03-17T23:09:02.466Z,99094.66
2019-03-17T23:11:30.969Z,99108.19
2019-03-17T23:13:58.317Z,99106.44
2019-03-17T23:16:25.272Z,99113.22
2019-03-17T23:18:52.255Z,99118.65
2019-03-17T23:21:19.467Z,99123.73
2019-03-17T23:23:46.403Z,99114.79
2019-03-17T23:26:13.555Z,99122.08
2019-03-17T23:28:40.910Z,99131.08
2019-03-17T23:31:07.845Z,99135.79
2019-03-17T23:33:34.788Z,99141.26
2019-03-17T23:36:01.954Z,99145.08
2019-03-17T23:38:29.710Z,99139.05
2019-03-17T23:40:56.676Z,99141.59
2019-03-17T23:43:23.928Z,99141.59
2019-03-17T23:45:51.162Z,99131.93
2019-03-17T23:48:18.105Z,99143.80
2019-03-17T23:50:45.047Z,99142.48
2019-03-17T23:53:12.004Z,99141.67
2019-03-17T23:55:39.167Z,99154.40
2019-03-17T23:58:06.130Z,99134.84
